sensor_id;sensor_type;location;lat;lon;timestamp;P1;durP1;ratioP1;P2;durP2;ratioP2
24739;SDS011;45234;48.148;17.128;2023-03-23T00:02:18;19.23;;;13.35;;
24739;SDS011;45234;48.148;17.128;2023-03-23T00:04:48;17.98;;;13.95;;
24739;SDS011;45234;48.148;17.128;2023-03-23T00:07:15;18.83;;;13.32;;
24739;SDS011;45234;48.148;17.128;2023-03-23T00:09:45;22.17;;;13.35;;
24739;SDS011;45234;48.148;17.128;2023-03-23T00:12:19;19.00;;;12.43;;
24739;SDS011;45234;48.148;17.128;2023-03-23T00:14:47;18.50;;;13.32;;
24739;SDS011;45234;48.148;17.128;2023-03-23T00:17:13;13.90;;;11.45;;
24739;SDS011;45234;48.148;17.128;2023-03-23T00:19:38;16.40;;;12.07;;
24739;SDS011;45234;48.148;17.128;2023-03-23T00:22:09;14.07;;;11.35;;
24739;SDS011;45234;48.148;17.128;2023-03-23T00:24:35;12.00;;;9.50;;
24739;SDS011;45234;48.148;17.128;2023-03-23T00:27:01;14.48;;;10.75;;
24739;SDS011;45234;48.148;17.128;2023-03-23T00:29:27;14.32;;;10.82;;
24739;SDS011;45234;48.148;17.128;2023-03-23T00:31:53;16.95;;;10.45;;
24739;SDS011;45234;48.148;17.128;2023-03-23T00:34:21;17.00;;;10.50;;
24739;SDS011;45234;48.148;17.128;2023-03-23T00:36:52;12.93;;;9.80;;
24739;SDS011;45234;48.148;17.128;2023-03-23T00:39:22;12.63;;;9.63;;
24739;SDS011;45234;48.148;17.128;2023-03-23T00:41:52;19.15;;;11.23;;
24739;SDS011;45234;48.148;17.128;2023-03-23T00:44:25;14.07;;;10.55;;
24739;SDS011;45234;48.148;17.128;2023-03-23T00:46:52;13.40;;;10.00;;
24739;SDS011;45234;48.148;17.128;2023-03-23T00:49:20;13.50;;;10.77;;
24739;SDS011;45234;48.148;17.128;2023-03-23T00:51:51;12.52;;;10.02;;
24739;SDS011;45234;48.148;17.128;2023-03-23T00:54:18;17.23;;;11.40;;
24739;SDS011;45234;48.148;17.128;2023-03-23T00:56:47;15.05;;;11.00;;
24739;SDS011;45234;48.148;17.128;2023-03-23T00:59:14;15.48;;;10.93;;
24739;SDS011;45234;48.148;17.128;2023-03-23T01:01:40;14.23;;;11.02;;
24739;SDS011;45234;48.148;17.128;2023-03-23T01:04:06;13.82;;;10.95;;
24739;SDS011;45234;48.148;17.128;2023-03-23T01:06:34;15.10;;;11.38;;
24739;SDS011;45234;48.148;17.128;2023-03-23T01:09:06;13.82;;;10.60;;
24739;SDS011;45234;48.148;17.128;2023-03-23T01:11:33;18.90;;;11.65;;
24739;SDS011;45234;48.148;17.128;2023-03-23T01:13:59;15.90;;;10.93;;
24739;SDS011;45234;48.148;17.128;2023-03-23T01:16:26;17.27;;;11.20;;
24739;SDS011;45234;48.148;17.128;2023-03-23T01:18:52;16.98;;;11.88;;
24739;SDS011;45234;48.148;17.128;2023-03-23T01:21:19;17.40;;;10.80;;
24739;SDS011;45234;48.148;17.128;2023-03-23T01:23:46;14.35;;;10.68;;
24739;SDS011;45234;48.148;17.128;2023-03-23T01:26:13;14.02;;;11.05;;
24739;SDS011;45234;48.148;17.128;2023-03-23T01:28:41;16.02;;;11.57;;
24739;SDS011;45234;48.148;17.128;2023-03-23T01:31:11;15.60;;;11.40;;
24739;SDS011;45234;48.148;17.128;2023-03-23T01:33:40;15.77;;;11.75;;
24739;SDS011;45234;48.148;17.128;2023-03-23T01:36:12;16.45;;;11.65;;
24739;SDS011;45234;48.148;17.128;2023-03-23T01:38:41;22.58;;;14.15;;
24739;SDS011;45234;48.148;17.128;2023-03-23T01:41:08;24.05;;;14.10;;
24739;SDS011;45234;48.148;17.128;2023-03-23T01:43:34;25.77;;;14.05;;
24739;SDS011;45234;48.148;17.128;2023-03-23T01:46:00;17.90;;;13.57;;
24739;SDS011;45234;48.148;17.128;2023-03-23T01:48:32;17.73;;;13.35;;
24739;SDS011;45234;48.148;17.128;2023-03-23T01:51:10;18.92;;;13.55;;
24739;SDS011;45234;48.148;17.128;2023-03-23T01:53:40;24.25;;;14.40;;
24739;SDS011;45234;48.148;17.128;2023-03-23T01:56:12;21.83;;;13.70;;
24739;SDS011;45234;48.148;17.128;2023-03-23T01:58:40;31.42;;;14.40;;
24739;SDS011;45234;48.148;17.128;2023-03-23T02:01:09;18.67;;;12.65;;
24739;SDS011;45234;48.148;17.128;2023-03-23T02:03:38;16.33;;;12.73;;
24739;SDS011;45234;48.148;17.128;2023-03-23T02:06:07;20.88;;;13.90;;
24739;SDS011;45234;48.148;17.128;2023-03-23T02:08:38;24.02;;;13.48;;
24739;SDS011;45234;48.148;17.128;2023-03-23T02:11:15;15.75;;;11.93;;
24739;SDS011;45234;48.148;17.128;2023-03-23T02:13:43;20.90;;;14.32;;
24739;SDS011;45234;48.148;17.128;2023-03-23T02:24:35;18.58;;;12.68;;
24739;SDS011;45234;48.148;17.128;2023-03-23T02:35:58;22.48;;;13.25;;
24739;SDS011;45234;48.148;17.128;2023-03-23T02:38:30;23.45;;;13.05;;
24739;SDS011;45234;48.148;17.128;2023-03-23T02:41:07;19.15;;;12.40;;
24739;SDS011;45234;48.148;17.128;2023-03-23T02:43:38;19.45;;;13.82;;
24739;SDS011;45234;48.148;17.128;2023-03-23T02:46:08;20.30;;;13.13;;
24739;SDS011;45234;48.148;17.128;2023-03-23T02:48:37;19.17;;;13.32;;
24739;SDS011;45234;48.148;17.128;2023-03-23T02:51:05;20.60;;;13.30;;
24739;SDS011;45234;48.148;17.128;2023-03-23T02:53:33;18.30;;;13.00;;
24739;SDS011;45234;48.148;17.128;2023-03-23T02:56:02;18.85;;;13.27;;
24739;SDS011;45234;48.148;17.128;2023-03-23T02:58:29;18.65;;;13.23;;
24739;SDS011;45234;48.148;17.128;2023-03-23T03:00:56;20.90;;;13.73;;
24739;SDS011;45234;48.148;17.128;2023-03-23T03:03:24;20.25;;;13.52;;
24739;SDS011;45234;48.148;17.128;2023-03-23T03:11:36;20.02;;;13.45;;
24739;SDS011;45234;48.148;17.128;2023-03-23T03:14:05;19.08;;;13.20;;
24739;SDS011;45234;48.148;17.128;2023-03-23T03:17:00;26.25;;;13.50;;
24739;SDS011;45234;48.148;17.128;2023-03-23T03:19:57;20.95;;;15.07;;
24739;SDS011;45234;48.148;17.128;2023-03-23T03:22:34;21.05;;;14.77;;
24739;SDS011;45234;48.148;17.128;2023-03-23T03:25:02;25.80;;;16.02;;
24739;SDS011;45234;48.148;17.128;2023-03-23T03:27:30;21.00;;;15.25;;
24739;SDS011;45234;48.148;17.128;2023-03-23T03:30:13;26.08;;;16.90;;
24739;SDS011;45234;48.148;17.128;2023-03-23T03:32:47;23.05;;;16.42;;
24739;SDS011;45234;48.148;17.128;2023-03-23T03:35:21;28.80;;;17.35;;
24739;SDS011;45234;48.148;17.128;2023-03-23T03:37:49;26.33;;;19.70;;
24739;SDS011;45234;48.148;17.128;2023-03-23T03:40:17;32.78;;;21.02;;
24739;SDS011;45234;48.148;17.128;2023-03-23T03:42:44;32.45;;;20.02;;
24739;SDS011;45234;48.148;17.128;2023-03-23T03:45:17;30.35;;;19.73;;
24739;SDS011;45234;48.148;17.128;2023-03-23T03:47:44;27.88;;;19.25;;
24739;SDS011;45234;48.148;17.128;2023-03-23T03:50:10;26.95;;;18.50;;
24739;SDS011;45234;48.148;17.128;2023-03-23T03:52:36;30.42;;;18.80;;
24739;SDS011;45234;48.148;17.128;2023-03-23T03:55:05;25.48;;;18.10;;
24739;SDS011;45234;48.148;17.128;2023-03-23T03:57:33;30.38;;;17.77;;
24739;SDS011;45234;48.148;17.128;2023-03-23T04:00:03;23.13;;;16.70;;
24739;SDS011;45234;48.148;17.128;2023-03-23T04:02:43;25.88;;;15.43;;
24739;SDS011;45234;48.148;17.128;2023-03-23T04:05:21;21.63;;;14.95;;
24739;SDS011;45234;48.148;17.128;2023-03-23T04:07:48;24.85;;;15.98;;
24739;SDS011;45234;48.148;17.128;2023-03-23T04:10:17;24.98;;;16.02;;
24739;SDS011;45234;48.148;17.128;2023-03-23T04:12:48;21.60;;;15.07;;
24739;SDS011;45234;48.148;17.128;2023-03-23T04:15:29;23.25;;;15.45;;
24739;SDS011;45234;48.148;17.128;2023-03-23T04:17:55;25.08;;;15.10;;
24739;SDS011;45234;48.148;17.128;2023-03-23T04:20:22;20.90;;;13.85;;
24739;SDS011;45234;48.148;17.128;2023-03-23T04:22:49;17.80;;;12.98;;
24739;SDS011;45234;48.148;17.128;2023-03-23T04:25:18;18.13;;;13.02;;
24739;SDS011;45234;48.148;17.128;2023-03-23T04:27:51;19.75;;;13.93;;
24739;SDS011;45234;48.148;17.128;2023-03-23T04:30:21;21.08;;;13.02;;
24739;SDS011;45234;48.148;17.128;2023-03-23T04:33:07;19.38;;;12.90;;
24739;SDS011;45234;48.148;17.128;2023-03-23T04:35:41;19.30;;;13.52;;
24739;SDS011;45234;48.148;17.128;2023-03-23T04:38:15;19.33;;;14.52;;
24739;SDS011;45234;48.148;17.128;2023-03-23T04:40:49;22.90;;;13.70;;
24739;SDS011;45234;48.148;17.128;2023-03-23T04:43:36;17.70;;;12.32;;
24739;SDS011;45234;48.148;17.128;2023-03-23T04:46:29;18.97;;;13.77;;
24739;SDS011;45234;48.148;17.128;2023-03-23T04:51:33;21.45;;;12.63;;
24739;SDS011;45234;48.148;17.128;2023-03-23T04:54:13;18.88;;;12.45;;
24739;SDS011;45234;48.148;17.128;2023-03-23T04:56:42;23.85;;;13.32;;
24739;SDS011;45234;48.148;17.128;2023-03-23T04:59:11;18.92;;;13.00;;
24739;SDS011;45234;48.148;17.128;2023-03-23T05:01:46;17.00;;;12.55;;
24739;SDS011;45234;48.148;17.128;2023-03-23T05:04:15;22.05;;;13.13;;
24739;SDS011;45234;48.148;17.128;2023-03-23T05:06:49;17.70;;;12.63;;
24739;SDS011;45234;48.148;17.128;2023-03-23T05:09:21;20.70;;;12.55;;
24739;SDS011;45234;48.148;17.128;2023-03-23T05:11:49;27.23;;;13.98;;
24739;SDS011;45234;48.148;17.128;2023-03-23T05:14:15;19.95;;;12.30;;
24739;SDS011;45234;48.148;17.128;2023-03-23T05:16:44;19.27;;;11.85;;
24739;SDS011;45234;48.148;17.128;2023-03-23T05:19:14;16.98;;;11.32;;
24739;SDS011;45234;48.148;17.128;2023-03-23T05:21:40;16.23;;;11.93;;
24739;SDS011;45234;48.148;17.128;2023-03-23T05:24:06;18.17;;;11.70;;
24739;SDS011;45234;48.148;17.128;2023-03-23T05:26:32;17.75;;;11.55;;
24739;SDS011;45234;48.148;17.128;2023-03-23T05:29:04;16.35;;;11.13;;
24739;SDS011;45234;48.148;17.128;2023-03-23T05:31:46;14.10;;;10.65;;
24739;SDS011;45234;48.148;17.128;2023-03-23T05:34:13;14.00;;;10.43;;
24739;SDS011;45234;48.148;17.128;2023-03-23T05:36:47;16.00;;;11.20;;
24739;SDS011;45234;48.148;17.128;2023-03-23T05:39:33;18.15;;;10.80;;
24739;SDS011;45234;48.148;17.128;2023-03-23T05:42:17;12.88;;;10.38;;
24739;SDS011;45234;48.148;17.128;2023-03-23T05:45:03;14.55;;;11.57;;
24739;SDS011;45234;48.148;17.128;2023-03-23T05:47:30;17.65;;;10.93;;
24739;SDS011;45234;48.148;17.128;2023-03-23T05:50:02;14.43;;;10.60;;
24739;SDS011;45234;48.148;17.128;2023-03-23T05:52:31;16.48;;;10.88;;
24739;SDS011;45234;48.148;17.128;2023-03-23T05:55:04;15.35;;;11.32;;
24739;SDS011;45234;48.148;17.128;2023-03-23T05:57:34;16.30;;;11.55;;
24739;SDS011;45234;48.148;17.128;2023-03-23T06:00:06;18.23;;;12.55;;
24739;SDS011;45234;48.148;17.128;2023-03-23T06:02:41;16.85;;;10.77;;
24739;SDS011;45234;48.148;17.128;2023-03-23T06:05:12;13.90;;;10.63;;
24739;SDS011;45234;48.148;17.128;2023-03-23T06:07:42;13.40;;;10.38;;
24739;SDS011;45234;48.148;17.128;2023-03-23T06:10:08;17.33;;;10.95;;
24739;SDS011;45234;48.148;17.128;2023-03-23T06:12:40;15.35;;;10.32;;
24739;SDS011;45234;48.148;17.128;2023-03-23T06:15:09;14.82;;;10.05;;
24739;SDS011;45234;48.148;17.128;2023-03-23T06:18:09;15.35;;;10.40;;
24739;SDS011;45234;48.148;17.128;2023-03-23T06:20:44;18.13;;;10.77;;
24739;SDS011;45234;48.148;17.128;2023-03-23T06:23:23;14.52;;;9.85;;
24739;SDS011;45234;48.148;17.128;2023-03-23T06:25:53;15.88;;;11.30;;
24739;SDS011;45234;48.148;17.128;2023-03-23T06:28:23;12.63;;;10.40;;
24739;SDS011;45234;48.148;17.128;2023-03-23T06:30:49;12.85;;;10.05;;
24739;SDS011;45234;48.148;17.128;2023-03-23T06:33:18;13.00;;;9.90;;
24739;SDS011;45234;48.148;17.128;2023-03-23T06:36:03;11.75;;;9.50;;
24739;SDS011;45234;48.148;17.128;2023-03-23T06:38:49;11.48;;;9.38;;
24739;SDS011;45234;48.148;17.128;2023-03-23T06:41:25;13.63;;;9.45;;
24739;SDS011;45234;48.148;17.128;2023-03-23T06:43:51;12.43;;;10.07;;
24739;SDS011;45234;48.148;17.128;2023-03-23T06:46:22;14.68;;;9.38;;
24739;SDS011;45234;48.148;17.128;2023-03-23T06:49:11;11.85;;;9.43;;
24739;SDS011;45234;48.148;17.128;2023-03-23T06:51:46;12.60;;;8.93;;
24739;SDS011;45234;48.148;17.128;2023-03-23T06:54:11;13.65;;;10.10;;
24739;SDS011;45234;48.148;17.128;2023-03-23T06:56:39;12.18;;;9.30;;
24739;SDS011;45234;48.148;17.128;2023-03-23T06:59:08;10.77;;;9.20;;
24739;SDS011;45234;48.148;17.128;2023-03-23T07:01:37;11.68;;;8.95;;
24739;SDS011;45234;48.148;17.128;2023-03-23T07:04:03;10.20;;;8.30;;
24739;SDS011;45234;48.148;17.128;2023-03-23T07:06:42;11.95;;;8.73;;
24739;SDS011;45234;48.148;17.128;2023-03-23T07:09:08;11.30;;;9.43;;
24739;SDS011;45234;48.148;17.128;2023-03-23T07:11:35;13.30;;;9.57;;
24739;SDS011;45234;48.148;17.128;2023-03-23T07:14:10;11.98;;;9.52;;
24739;SDS011;45234;48.148;17.128;2023-03-23T07:16:38;12.48;;;9.25;;
24739;SDS011;45234;48.148;17.128;2023-03-23T07:19:04;9.55;;;8.55;;
24739;SDS011;45234;48.148;17.128;2023-03-23T07:21:31;12.77;;;9.13;;
24739;SDS011;45234;48.148;17.128;2023-03-23T07:23:56;11.57;;;8.80;;
24739;SDS011;45234;48.148;17.128;2023-03-23T07:26:42;14.60;;;9.02;;
24739;SDS011;45234;48.148;17.128;2023-03-23T07:29:09;11.52;;;8.23;;
24739;SDS011;45234;48.148;17.128;2023-03-23T07:31:40;14.50;;;9.73;;
24739;SDS011;45234;48.148;17.128;2023-03-23T07:34:07;12.10;;;10.00;;
24739;SDS011;45234;48.148;17.128;2023-03-23T07:36:43;12.25;;;9.90;;
24739;SDS011;45234;48.148;17.128;2023-03-23T07:39:12;10.75;;;9.43;;
24739;SDS011;45234;48.148;17.128;2023-03-23T07:41:40;15.07;;;9.80;;
24739;SDS011;45234;48.148;17.128;2023-03-23T07:44:15;15.90;;;9.48;;
24739;SDS011;45234;48.148;17.128;2023-03-23T07:46:43;13.52;;;10.05;;
24739;SDS011;45234;48.148;17.128;2023-03-23T07:49:13;14.13;;;9.40;;
24739;SDS011;45234;48.148;17.128;2023-03-23T07:51:45;14.13;;;9.85;;
24739;SDS011;45234;48.148;17.128;2023-03-23T07:54:13;12.48;;;9.02;;
24739;SDS011;45234;48.148;17.128;2023-03-23T07:57:15;11.98;;;8.35;;
24739;SDS011;45234;48.148;17.128;2023-03-23T07:59:47;11.98;;;8.45;;
24739;SDS011;45234;48.148;17.128;2023-03-23T08:02:13;11.40;;;7.53;;
24739;SDS011;45234;48.148;17.128;2023-03-23T08:04:57;10.85;;;7.93;;
24739;SDS011;45234;48.148;17.128;2023-03-23T08:07:28;10.00;;;8.00;;
24739;SDS011;45234;48.148;17.128;2023-03-23T08:10:14;12.38;;;8.93;;
24739;SDS011;45234;48.148;17.128;2023-03-23T08:13:01;12.30;;;9.02;;
24739;SDS011;45234;48.148;17.128;2023-03-23T08:16:04;11.60;;;8.35;;
24739;SDS011;45234;48.148;17.128;2023-03-23T08:18:50;11.93;;;8.10;;
24739;SDS011;45234;48.148;17.128;2023-03-23T08:21:36;9.15;;;7.57;;
24739;SDS011;45234;48.148;17.128;2023-03-23T08:24:21;16.42;;;8.73;;
24739;SDS011;45234;48.148;17.128;2023-03-23T08:27:25;13.23;;;8.18;;
24739;SDS011;45234;48.148;17.128;2023-03-23T08:30:10;11.85;;;8.38;;
24739;SDS011;45234;48.148;17.128;2023-03-23T08:32:55;9.13;;;7.95;;
24739;SDS011;45234;48.148;17.128;2023-03-23T08:36:00;10.32;;;7.75;;
24739;SDS011;45234;48.148;17.128;2023-03-23T08:38:46;12.15;;;8.10;;
24739;SDS011;45234;48.148;17.128;2023-03-23T08:41:30;10.93;;;8.88;;
24739;SDS011;45234;48.148;17.128;2023-03-23T08:44:22;13.10;;;8.32;;
24739;SDS011;45234;48.148;17.128;2023-03-23T08:47:08;12.07;;;9.05;;
24739;SDS011;45234;48.148;17.128;2023-03-23T08:49:51;11.68;;;8.80;;
24739;SDS011;45234;48.148;17.128;2023-03-23T08:52:36;18.08;;;8.38;;
24739;SDS011;45234;48.148;17.128;2023-03-23T08:55:26;10.40;;;9.15;;
24739;SDS011;45234;48.148;17.128;2023-03-23T08:58:12;11.85;;;8.40;;
24739;SDS011;45234;48.148;17.128;2023-03-23T09:00:56;11.77;;;8.52;;
24739;SDS011;45234;48.148;17.128;2023-03-23T09:03:45;10.80;;;8.45;;
24739;SDS011;45234;48.148;17.128;2023-03-23T09:06:31;14.35;;;9.32;;
24739;SDS011;45234;48.148;17.128;2023-03-23T09:08:57;13.40;;;9.07;;
24739;SDS011;45234;48.148;17.128;2023-03-23T09:11:25;10.82;;;8.77;;
24739;SDS011;45234;48.148;17.128;2023-03-23T09:13:52;15.48;;;8.50;;
24739;SDS011;45234;48.148;17.128;2023-03-23T09:16:17;12.60;;;8.65;;
24739;SDS011;45234;48.148;17.128;2023-03-23T09:18:43;11.25;;;7.63;;
24739;SDS011;45234;48.148;17.128;2023-03-23T09:21:09;10.40;;;8.15;;
24739;SDS011;45234;48.148;17.128;2023-03-23T09:23:35;15.52;;;8.93;;
24739;SDS011;45234;48.148;17.128;2023-03-23T09:26:01;11.55;;;8.88;;
24739;SDS011;45234;48.148;17.128;2023-03-23T09:28:28;11.45;;;8.30;;
24739;SDS011;45234;48.148;17.128;2023-03-23T09:30:55;11.40;;;8.93;;
24739;SDS011;45234;48.148;17.128;2023-03-23T09:33:25;14.95;;;9.10;;
24739;SDS011;45234;48.148;17.128;2023-03-23T09:35:53;10.65;;;8.40;;
24739;SDS011;45234;48.148;17.128;2023-03-23T09:38:19;9.98;;;8.32;;
24739;SDS011;45234;48.148;17.128;2023-03-23T09:40:48;15.30;;;9.00;;
24739;SDS011;45234;48.148;17.128;2023-03-23T09:46:23;14.13;;;9.07;;
24739;SDS011;45234;48.148;17.128;2023-03-23T09:49:11;14.80;;;9.00;;
24739;SDS011;45234;48.148;17.128;2023-03-23T09:51:59;11.43;;;8.32;;
24739;SDS011;45234;48.148;17.128;2023-03-23T09:54:37;13.52;;;8.82;;
24739;SDS011;45234;48.148;17.128;2023-03-23T09:57:10;10.57;;;8.68;;
24739;SDS011;45234;48.148;17.128;2023-03-23T10:02:27;11.20;;;8.98;;
24739;SDS011;45234;48.148;17.128;2023-03-23T10:07:55;12.40;;;9.18;;
24739;SDS011;45234;48.148;17.128;2023-03-23T10:10:23;12.45;;;8.88;;
24739;SDS011;45234;48.148;17.128;2023-03-23T10:13:13;12.93;;;9.00;;
24739;SDS011;45234;48.148;17.128;2023-03-23T10:15:41;11.23;;;8.95;;
24739;SDS011;45234;48.148;17.128;2023-03-23T10:26:14;12.48;;;9.48;;
24739;SDS011;45234;48.148;17.128;2023-03-23T10:28:50;14.02;;;9.45;;
24739;SDS011;45234;48.148;17.128;2023-03-23T10:31:30;16.92;;;9.90;;
24739;SDS011;45234;48.148;17.128;2023-03-23T10:34:07;16.73;;;10.18;;
24739;SDS011;45234;48.148;17.128;2023-03-23T10:36:48;11.55;;;9.68;;
24739;SDS011;45234;48.148;17.128;2023-03-23T10:39:20;18.85;;;9.85;;
24739;SDS011;45234;48.148;17.128;2023-03-23T10:41:48;12.55;;;9.82;;
24739;SDS011;45234;48.148;17.128;2023-03-23T10:44:19;12.35;;;9.70;;
24739;SDS011;45234;48.148;17.128;2023-03-23T10:46:58;12.43;;;9.77;;
24739;SDS011;45234;48.148;17.128;2023-03-23T10:49:33;14.02;;;9.52;;
24739;SDS011;45234;48.148;17.128;2023-03-23T10:54:54;15.32;;;9.82;;
24739;SDS011;45234;48.148;17.128;2023-03-23T10:57:40;12.48;;;9.98;;
24739;SDS011;45234;48.148;17.128;2023-03-23T11:02:44;14.77;;;9.70;;
24739;SDS011;45234;48.148;17.128;2023-03-23T11:05:23;14.52;;;9.27;;
24739;SDS011;45234;48.148;17.128;2023-03-23T11:07:53;12.55;;;9.50;;
24739;SDS011;45234;48.148;17.128;2023-03-23T11:10:25;12.38;;;9.07;;
24739;SDS011;45234;48.148;17.128;2023-03-23T11:13:03;15.77;;;9.47;;
24739;SDS011;45234;48.148;17.128;2023-03-23T11:15:34;13.43;;;9.75;;
24739;SDS011;45234;48.148;17.128;2023-03-23T11:18:06;13.50;;;10.02;;
24739;SDS011;45234;48.148;17.128;2023-03-23T11:20:48;16.52;;;9.32;;
24739;SDS011;45234;48.148;17.128;2023-03-23T11:23:24;16.00;;;9.68;;
24739;SDS011;45234;48.148;17.128;2023-03-23T11:26:06;11.13;;;9.85;;
24739;SDS011;45234;48.148;17.128;2023-03-23T11:28:36;11.70;;;9.10;;
24739;SDS011;45234;48.148;17.128;2023-03-23T11:31:07;10.85;;;9.65;;
24739;SDS011;45234;48.148;17.128;2023-03-23T11:33:46;14.88;;;10.75;;
24739;SDS011;45234;48.148;17.128;2023-03-23T11:36:18;14.50;;;10.00;;
24739;SDS011;45234;48.148;17.128;2023-03-23T11:38:47;14.38;;;10.07;;
24739;SDS011;45234;48.148;17.128;2023-03-23T11:41:22;12.27;;;9.40;;
24739;SDS011;45234;48.148;17.128;2023-03-23T11:43:50;17.40;;;9.73;;
24739;SDS011;45234;48.148;17.128;2023-03-23T11:49:25;14.75;;;9.75;;
24739;SDS011;45234;48.148;17.128;2023-03-23T11:52:09;18.52;;;9.40;;
24739;SDS011;45234;48.148;17.128;2023-03-23T11:58:19;17.95;;;10.63;;
24739;SDS011;45234;48.148;17.128;2023-03-23T12:00:56;12.60;;;10.23;;
24739;SDS011;45234;48.148;17.128;2023-03-23T12:03:23;15.32;;;10.38;;
24739;SDS011;45234;48.148;17.128;2023-03-23T12:06:02;11.38;;;9.65;;
24739;SDS011;45234;48.148;17.128;2023-03-23T12:08:40;12.38;;;9.45;;
24739;SDS011;45234;48.148;17.128;2023-03-23T12:11:27;14.65;;;9.57;;
24739;SDS011;45234;48.148;17.128;2023-03-23T12:19:59;11.43;;;10.00;;
24739;SDS011;45234;48.148;17.128;2023-03-23T12:31:49;12.05;;;8.68;;
24739;SDS011;45234;48.148;17.128;2023-03-23T12:48:37;14.05;;;9.50;;
24739;SDS011;45234;48.148;17.128;2023-03-23T13:05:38;12.00;;;7.97;;
24739;SDS011;45234;48.148;17.128;2023-03-23T13:07:49;11.20;;;7.85;;
24739;SDS011;45234;48.148;17.128;2023-03-23T13:10:35;13.90;;;8.25;;
24739;SDS011;45234;48.148;17.128;2023-03-23T13:13:10;18.17;;;7.93;;
24739;SDS011;45234;48.148;17.128;2023-03-23T13:18:34;10.93;;;7.30;;
24739;SDS011;45234;48.148;17.128;2023-03-23T13:24:03;10.68;;;8.23;;
24739;SDS011;45234;48.148;17.128;2023-03-23T13:26:36;11.70;;;7.90;;
24739;SDS011;45234;48.148;17.128;2023-03-23T13:31:38;14.18;;;7.03;;
24739;SDS011;45234;48.148;17.128;2023-03-23T13:34:10;13.80;;;8.23;;
24739;SDS011;45234;48.148;17.128;2023-03-23T13:36:41;11.60;;;7.47;;
24739;SDS011;45234;48.148;17.128;2023-03-23T13:39:19;14.98;;;7.68;;
24739;SDS011;45234;48.148;17.128;2023-03-23T13:41:46;13.70;;;8.02;;
24739;SDS011;45234;48.148;17.128;2023-03-23T13:44:18;11.50;;;7.45;;
24739;SDS011;45234;48.148;17.128;2023-03-23T13:47:49;12.13;;;7.95;;
24739;SDS011;45234;48.148;17.128;2023-03-23T13:49:49;12.32;;;8.15;;
24739;SDS011;45234;48.148;17.128;2023-03-23T14:03:09;14.30;;;8.07;;
24739;SDS011;45234;48.148;17.128;2023-03-23T14:13:31;14.98;;;8.50;;
24739;SDS011;45234;48.148;17.128;2023-03-23T14:16:22;19.58;;;10.60;;
24739;SDS011;45234;48.148;17.128;2023-03-23T14:18:58;14.93;;;9.63;;
24739;SDS011;45234;48.148;17.128;2023-03-23T14:21:40;15.25;;;9.15;;
24739;SDS011;45234;48.148;17.128;2023-03-23T14:24:15;17.13;;;9.55;;
24739;SDS011;45234;48.148;17.128;2023-03-23T14:26:44;20.15;;;9.73;;
24739;SDS011;45234;48.148;17.128;2023-03-23T14:29:11;16.80;;;9.88;;
24739;SDS011;45234;48.148;17.128;2023-03-23T14:31:38;13.77;;;9.60;;
24739;SDS011;45234;48.148;17.128;2023-03-23T14:34:19;15.10;;;10.38;;
24739;SDS011;45234;48.148;17.128;2023-03-23T14:36:48;14.53;;;9.77;;
24739;SDS011;45234;48.148;17.128;2023-03-23T14:39:19;14.98;;;10.82;;
24739;SDS011;45234;48.148;17.128;2023-03-23T14:41:46;15.85;;;11.02;;
24739;SDS011;45234;48.148;17.128;2023-03-23T14:44:17;13.73;;;10.13;;
24739;SDS011;45234;48.148;17.128;2023-03-23T14:46:51;13.90;;;10.20;;
24739;SDS011;45234;48.148;17.128;2023-03-23T14:49:21;19.23;;;11.25;;
24739;SDS011;45234;48.148;17.128;2023-03-23T14:52:03;13.73;;;10.80;;
24739;SDS011;45234;48.148;17.128;2023-03-23T14:54:34;15.75;;;10.60;;
24739;SDS011;45234;48.148;17.128;2023-03-23T14:57:03;16.35;;;10.57;;
24739;SDS011;45234;48.148;17.128;2023-03-23T14:59:40;17.10;;;10.57;;
24739;SDS011;45234;48.148;17.128;2023-03-23T15:02:09;12.95;;;9.93;;
24739;SDS011;45234;48.148;17.128;2023-03-23T15:04:41;16.85;;;9.65;;
24739;SDS011;45234;48.148;17.128;2023-03-23T15:07:10;13.18;;;9.15;;
24739;SDS011;45234;48.148;17.128;2023-03-23T15:09:38;15.13;;;9.30;;
24739;SDS011;45234;48.148;17.128;2023-03-23T15:12:06;14.65;;;9.88;;
24739;SDS011;45234;48.148;17.128;2023-03-23T15:14:53;15.05;;;9.27;;
24739;SDS011;45234;48.148;17.128;2023-03-23T15:17:29;12.88;;;9.07;;
24739;SDS011;45234;48.148;17.128;2023-03-23T15:20:19;11.73;;;9.15;;
24739;SDS011;45234;48.148;17.128;2023-03-23T15:22:49;14.82;;;9.43;;
24739;SDS011;45234;48.148;17.128;2023-03-23T15:27:48;13.55;;;9.18;;
24739;SDS011;45234;48.148;17.128;2023-03-23T15:32:49;15.60;;;10.30;;
24739;SDS011;45234;48.148;17.128;2023-03-23T15:35:24;14.80;;;10.20;;
24739;SDS011;45234;48.148;17.128;2023-03-23T15:37:52;19.65;;;10.20;;
24739;SDS011;45234;48.148;17.128;2023-03-23T15:40:26;21.63;;;9.77;;
24739;SDS011;45234;48.148;17.128;2023-03-23T15:43:08;13.05;;;8.82;;
24739;SDS011;45234;48.148;17.128;2023-03-23T15:45:57;15.45;;;9.70;;
24739;SDS011;45234;48.148;17.128;2023-03-23T15:48:48;17.10;;;9.88;;
24739;SDS011;45234;48.148;17.128;2023-03-23T15:51:19;15.73;;;9.23;;
24739;SDS011;45234;48.148;17.128;2023-03-23T15:53:50;13.25;;;9.48;;
24739;SDS011;45234;48.148;17.128;2023-03-23T15:56:16;15.82;;;9.63;;
24739;SDS011;45234;48.148;17.128;2023-03-23T15:58:42;12.55;;;9.57;;
24739;SDS011;45234;48.148;17.128;2023-03-23T16:01:14;14.95;;;9.68;;
24739;SDS011;45234;48.148;17.128;2023-03-23T16:04:34;13.88;;;10.35;;
24739;SDS011;45234;48.148;17.128;2023-03-23T16:06:43;14.48;;;10.27;;
24739;SDS011;45234;48.148;17.128;2023-03-23T16:09:15;16.42;;;10.18;;
24739;SDS011;45234;48.148;17.128;2023-03-23T16:11:45;13.20;;;10.30;;
24739;SDS011;45234;48.148;17.128;2023-03-23T16:14:12;12.55;;;9.25;;
24739;SDS011;45234;48.148;17.128;2023-03-23T16:16:46;16.27;;;10.32;;
24739;SDS011;45234;48.148;17.128;2023-03-23T16:19:16;16.08;;;10.90;;
24739;SDS011;45234;48.148;17.128;2023-03-23T16:21:45;17.35;;;11.70;;
24739;SDS011;45234;48.148;17.128;2023-03-23T16:24:12;16.58;;;11.65;;
24739;SDS011;45234;48.148;17.128;2023-03-23T16:26:38;16.42;;;11.07;;
24739;SDS011;45234;48.148;17.128;2023-03-23T16:29:12;16.67;;;12.30;;
24739;SDS011;45234;48.148;17.128;2023-03-23T16:32:02;19.48;;;11.82;;
24739;SDS011;45234;48.148;17.128;2023-03-23T16:34:29;16.45;;;11.77;;
24739;SDS011;45234;48.148;17.128;2023-03-23T16:36:58;19.45;;;11.38;;
24739;SDS011;45234;48.148;17.128;2023-03-23T16:39:25;18.20;;;13.38;;
24739;SDS011;45234;48.148;17.128;2023-03-23T16:41:52;19.40;;;12.40;;
24739;SDS011;45234;48.148;17.128;2023-03-23T16:44:20;19.60;;;13.10;;
24739;SDS011;45234;48.148;17.128;2023-03-23T16:46:48;23.38;;;13.85;;
24739;SDS011;45234;48.148;17.128;2023-03-23T16:49:15;23.10;;;12.73;;
24739;SDS011;45234;48.148;17.128;2023-03-23T16:51:44;16.45;;;11.73;;
24739;SDS011;45234;48.148;17.128;2023-03-23T16:54:13;16.23;;;11.25;;
24739;SDS011;45234;48.148;17.128;2023-03-23T16:56:40;19.48;;;12.65;;
24739;SDS011;45234;48.148;17.128;2023-03-23T16:59:11;19.35;;;11.35;;